createdAt,value
2023-03-19T00:01:54.953Z,97500.72
2023-03-19T00:04:22.172Z,97497.75
2023-03-19T00:06:48.645Z,97495.19
2023-03-19T00:09:15.162Z,97488.19
2023-03-19T00:11:42.214Z,97485.25
2023-03-19T00:14:08.935Z,97499.09
2023-03-19T00:16:36.584Z,97492.50
2023-03-19T00:19:03.891Z,97493.59
2023-03-19T00:21:31.209Z,97495.06
2023-03-19T00:24:01.031Z,97496.22
2023-03-19T00:26:31.312Z,97491.59
2023-03-19T00:28:57.836Z,97499.09
2023-03-19T00:31:24.463Z,97496.13
2023-03-19T00:33:51.027Z,97503.56
2023-03-19T00:36:18.249Z,97488.50
2023-03-19T00:38:45.305Z,97487.41
2023-03-19T00:41:13.039Z,97488.28
2023-03-19T00:43:39.690Z,97487.75
2023-03-19T00:46:06.770Z,97484.66
2023-03-19T00:48:34.724Z,97478.28
2023-03-19T00:51:03.346Z,97483.91
2023-03-19T00:53:29.809Z,97478.69
2023-03-19T00:55:56.564Z,97472.41
2023-03-19T00:58:23.074Z,97481.44
2023-03-19T01:00:54.016Z,97478.47
2023-03-19T01:03:20.897Z,97481.50
2023-03-19T01:08:15.966Z,97485.53
2023-03-19T01:10:42.774Z,97483.38
2023-03-19T01:13:09.262Z,97476.59
2023-03-19T01:15:37.013Z,97468.50
2023-03-19T01:18:03.554Z,97469.28
2023-03-19T01:20:29.994Z,97472.13
2023-03-19T01:22:56.497Z,97472.13
2023-03-19T01:25:23.079Z,97477.44
2023-03-19T01:28:00.999Z,97469.34
2023-03-19T01:30:28.070Z,97464.47
2023-03-19T01:33:16.658Z,97465.16
2023-03-19T01:36:03.924Z,97453.44
2023-03-19T01:38:38.173Z,97467.00
2023-03-19T01:41:12.822Z,97474.25
2023-03-19T01:43:39.447Z,97458.31
2023-03-19T01:46:23.232Z,97463.44
2023-03-19T01:49:14.146Z,97466.09
2023-03-19T01:51:46.305Z,97458.13
2023-03-19T01:54:31.241Z,97456.94
2023-03-19T01:57:11.340Z,97459.41
2023-03-19T02:00:14.502Z,97464.50
2023-03-19T02:02:44.775Z,97457.25
2023-03-19T02:05:39.508Z,97453.84
2023-03-19T02:08:11.843Z,97454.34
2023-03-19T02:10:39.342Z,97451.09
2023-03-19T02:13:06.475Z,97463.19
2023-03-19T02:15:33.148Z,97470.88
2023-03-19T02:17:59.652Z,97468.53
2023-03-19T02:20:27.051Z,97460.63
2023-03-19T02:23:00.809Z,97459.78
2023-03-19T02:25:31.032Z,97450.84
2023-03-19T02:27:58.166Z,97453.31
2023-03-19T02:30:26.702Z,97467.25
2023-03-19T02:32:54.737Z,97465.56
2023-03-19T02:35:21.324Z,97472.34
2023-03-19T02:37:47.819Z,97459.59
2023-03-19T02:40:21.350Z,97459.41
2023-03-19T02:42:47.875Z,97453.00
2023-03-19T02:45:14.821Z,97452.56
2023-03-19T02:47:41.619Z,97465.44
2023-03-19T02:50:08.693Z,97458.72
2023-03-19T02:52:35.611Z,97461.31
2023-03-19T02:55:02.352Z,97464.91
2023-03-19T02:57:28.809Z,97471.69
2023-03-19T02:59:55.724Z,97465.53
2023-03-19T03:02:22.522Z,97465.16
2023-03-19T03:04:49.056Z,97470.47
2023-03-19T03:07:15.560Z,97458.22
2023-03-19T03:09:42.126Z,97457.28
2023-03-19T03:12:09.975Z,97455.91
2023-03-19T03:14:36.534Z,97455.34
2023-03-19T03:17:02.999Z,97460.50
2023-03-19T03:19:29.497Z,97462.78
2023-03-19T03:21:57.334Z,97460.63
2023-03-19T03:24:24.243Z,97461.91
2023-03-19T03:26:50.689Z,97463.19
2023-03-19T03:29:17.177Z,97462.34
2023-03-19T03:31:43.789Z,97458.56
2023-03-19T03:34:10.551Z,97464.91
2023-03-19T03:36:37.599Z,97454.81
2023-03-19T03:39:04.203Z,97465.66
2023-03-19T03:41:30.734Z,97466.56
2023-03-19T03:43:57.597Z,97457.44
2023-03-19T03:46:24.427Z,97461.28
2023-03-19T03:48:51.780Z,97455.22
2023-03-19T03:51:19.041Z,97453.25
2023-03-19T03:53:45.617Z,97454.09
2023-03-19T03:56:12.953Z,97450.03
2023-03-19T03:58:39.530Z,97451.06
2023-03-19T04:01:07.176Z,97450.78
2023-03-19T04:03:34.058Z,97454.66
2023-03-19T04:06:00.778Z,97457.53
2023-03-19T04:08:27.821Z,97463.56
2023-03-19T04:10:54.415Z,97454.19
2023-03-19T04:13:20.900Z,97462.50
2023-03-19T04:15:47.793Z,97459.50
2023-03-19T04:18:15.250Z,97462.63
2023-03-19T04:20:42.026Z,97452.78
2023-03-19T04:23:08.785Z,97447.59
2023-03-19T04:25:35.576Z,97445.69
2023-03-19T04:28:02.130Z,97449.47
2023-03-19T04:30:28.996Z,97444.00
2023-03-19T04:32:56.714Z,97443.78
2023-03-19T04:35:23.578Z,97447.03
2023-03-19T04:37:50.164Z,97452.53
2023-03-19T04:40:19.374Z,97451.25
2023-03-19T04:42:46.792Z,97447.22
2023-03-19T04:45:25.809Z,97446.56
2023-03-19T04:47:52.613Z,97436.91
2023-03-19T04:50:19.930Z,97440.97
2023-03-19T04:52:46.388Z,97439.31
2023-03-19T04:55:13.205Z,97452.06
2023-03-19T04:58:03.102Z,97453.59
2023-03-19T05:00:32.737Z,97446.00
2023-03-19T05:02:59.806Z,97439.53
2023-03-19T05:05:28.299Z,97444.47
2023-03-19T05:07:55.349Z,97455.69
2023-03-19T05:10:21.784Z,97454.19
2023-03-19T05:12:48.394Z,97450.78
2023-03-19T05:15:15.105Z,97459.78
2023-03-19T05:17:51.412Z,97467.38
2023-03-19T05:20:22.118Z,97453.16
2023-03-19T05:22:55.166Z,97456.16
2023-03-19T05:25:30.220Z,97453.97
2023-03-19T05:27:57.034Z,97455.91
2023-03-19T05:30:24.736Z,97468.06
2023-03-19T05:33:07.827Z,97465.69
2023-03-19T05:35:38.004Z,97459.25
2023-03-19T05:38:11.831Z,97458.97
2023-03-19T05:40:42.204Z,97465.31
2023-03-19T05:43:21.527Z,97464.91
2023-03-19T05:45:54.991Z,97467.81
2023-03-19T05:48:28.063Z,97469.81
2023-03-19T05:50:54.558Z,97477.66
2023-03-19T05:53:23.033Z,97484.38
2023-03-19T05:56:09.607Z,97481.34
2023-03-19T05:58:47.396Z,97491.22
2023-03-19T06:01:18.257Z,97472.22
2023-03-19T06:03:45.455Z,97473.41
2023-03-19T06:06:14.333Z,97477.50
2023-03-19T06:08:43.828Z,97483.56
2023-03-19T06:11:20.556Z,97485.63
2023-03-19T06:13:54.802Z,97484.56
2023-03-19T06:16:21.418Z,97479.91
2023-03-19T06:18:52.119Z,97484.16
2023-03-19T06:21:19.216Z,97484.19
2023-03-19T06:23:45.838Z,97487.91
2023-03-19T06:26:16.316Z,97486.09
2023-03-19T06:28:48.865Z,97477.34
2023-03-19T06:31:16.553Z,97473.41
2023-03-19T06:34:01.998Z,97484.91
2023-03-19T06:36:39.149Z,97482.00
2023-03-19T06:39:09.241Z,97485.81
2023-03-19T06:41:36.001Z,97483.63
2023-03-19T06:44:12.116Z,97484.31
2023-03-19T06:46:38.626Z,97479.78
2023-03-19T06:49:05.084Z,97476.53
2023-03-19T06:51:31.612Z,97485.16
2023-03-19T06:53:58.157Z,97489.78
2023-03-19T06:56:24.867Z,97491.91
2023-03-19T06:58:51.380Z,97488.97
2023-03-19T07:01:17.864Z,97473.16
2023-03-19T07:03:44.699Z,97480.09
2023-03-19T07:06:11.626Z,97484.66
2023-03-19T07:08:38.122Z,97482.38
2023-03-19T07:11:05.544Z,97478.91
2023-03-19T07:13:33.099Z,97476.25
2023-03-19T07:15:59.727Z,97467.84
2023-03-19T07:18:26.371Z,97473.25
2023-03-19T07:20:53.244Z,97483.44
2023-03-19T07:23:19.729Z,97480.84
2023-03-19T07:25:47.637Z,97475.91
2023-03-19T07:28:14.324Z,97477.88
2023-03-19T07:30:40.816Z,97477.78
2023-03-19T07:33:07.790Z,97477.59
2023-03-19T07:35:34.764Z,97477.59
2023-03-19T07:38:02.601Z,97487.84
2023-03-19T07:40:29.054Z,97480.91
2023-03-19T07:42:55.716Z,97471.81
2023-03-19T07:45:22.530Z,97476.91
2023-03-19T07:47:52.583Z,97489.91
2023-03-19T07:50:18.997Z,97482.63
2023-03-19T07:52:47.045Z,97475.22
2023-03-19T07:55:13.697Z,97475.91
2023-03-19T07:57:40.749Z,97482.31
2023-03-19T08:00:08.241Z,97484.16
2023-03-19T08:02:39.369Z,97474.84
2023-03-19T08:05:06.195Z,97458.56
2023-03-19T08:07:32.799Z,97468.44
2023-03-19T08:09:59.264Z,97471.69
2023-03-19T08:12:26.230Z,97468.47
2023-03-19T08:14:52.788Z,97469.47
2023-03-19T08:17:19.219Z,97460.66
2023-03-19T08:19:46.773Z,97456.75
2023-03-19T08:22:13.551Z,97460.69
2023-03-19T08:24:40.228Z,97450.72
2023-03-19T08:27:06.802Z,97443.91
2023-03-19T08:29:33.412Z,97437.84
2023-03-19T08:32:01.259Z,97454.22
2023-03-19T08:34:27.734Z,97456.28
2023-03-19T08:36:54.155Z,97456.50
2023-03-19T08:39:20.777Z,97467.47
2023-03-19T08:41:47.188Z,97468.72
2023-03-19T08:44:14.143Z,97469.09
2023-03-19T08:46:42.505Z,97473.28
2023-03-19T08:49:09.283Z,97465.44
2023-03-19T08:51:36.376Z,97475.22
2023-03-19T08:54:02.919Z,97479.66
2023-03-19T08:56:29.454Z,97476.47
2023-03-19T08:58:56.459Z,97479.47
2023-03-19T09:01:23.859Z,97465.81
2023-03-19T09:03:50.648Z,97464.22
2023-03-19T09:06:17.158Z,97456.41
2023-03-19T09:08:44.687Z,97463.03
2023-03-19T09:11:11.232Z,97460.91
2023-03-19T09:13:37.878Z,97470.50
2023-03-19T09:16:04.799Z,97479.78
2023-03-19T09:18:31.442Z,97469.06
2023-03-19T09:20:57.924Z,97459.19
2023-03-19T09:23:24.429Z,97457.44
2023-03-19T09:25:51.302Z,97463.22
2023-03-19T09:28:18.277Z,97446.56
2023-03-19T09:30:48.193Z,97458.13
2023-03-19T09:33:15.149Z,97463.09
2023-03-19T09:35:42.154Z,97457.50
2023-03-19T09:38:08.658Z,97450.31
2023-03-19T09:40:37.838Z,97446.38
2023-03-19T09:43:24.979Z,97443.84
2023-03-19T09:45:51.769Z,97433.47
2023-03-19T09:48:20.793Z,97437.31
2023-03-19T09:50:48.781Z,97453.13
2023-03-19T09:53:15.365Z,97449.38
2023-03-19T09:55:49.654Z,97449.00
2023-03-19T09:58:21.505Z,97442.44
2023-03-19T10:00:50.522Z,97443.63
2023-03-19T10:03:29.188Z,97439.19
2023-03-19T10:06:14.412Z,97433.81
2023-03-19T10:08:59.217Z,97420.63
2023-03-19T10:11:29.601Z,97430.06
2023-03-19T10:14:02.146Z,97427.53
2023-03-19T10:16:29.737Z,97426.44
2023-03-19T10:19:01.654Z,97426.09
2023-03-19T10:21:40.201Z,97425.75
2023-03-19T10:24:22.411Z,97425.59
2023-03-19T10:26:49.973Z,97411.63
2023-03-19T10:29:20.841Z,97417.53
2023-03-19T10:32:07.605Z,97411.56
2023-03-19T10:34:41.014Z,97419.50
2023-03-19T10:37:15.264Z,97411.28
2023-03-19T10:39:45.777Z,97416.72
2023-03-19T10:42:25.752Z,97413.56
2023-03-19T10:45:28.128Z,97406.88
2023-03-19T10:47:56.864Z,97413.34
2023-03-19T10:50:31.385Z,97419.59
2023-03-19T10:53:13.203Z,97413.00
2023-03-19T10:55:47.374Z,97413.66
2023-03-19T10:58:18.468Z,97410.03
2023-03-19T11:01:05.200Z,97413.22
2023-03-19T11:03:33.815Z,97399.91
2023-03-19T11:06:06.906Z,97405.19
2023-03-19T11:08:37.614Z,97394.59
2023-03-19T11:11:04.277Z,97405.34
2023-03-19T11:13:34.057Z,97397.59
2023-03-19T11:16:00.878Z,97401.03
2023-03-19T11:18:28.361Z,97396.97
2023-03-19T11:20:59.634Z,97392.25
2023-03-19T11:23:30.557Z,97394.91
2023-03-19T11:26:01.757Z,97388.13
2023-03-19T11:28:32.889Z,97387.88
2023-03-19T11:31:00.009Z,97394.09
2023-03-19T11:33:42.562Z,97394.88
2023-03-19T11:36:13.026Z,97397.59
2023-03-19T11:38:50.999Z,97392.34
2023-03-19T11:41:23.817Z,97393.00
2023-03-19T11:44:02.160Z,97389.19
2023-03-19T11:46:36.341Z,97383.13
2023-03-19T11:49:14.897Z,97385.31
2023-03-19T11:51:52.663Z,97379.88
2023-03-19T11:54:31.107Z,97379.22
2023-03-19T11:57:03.991Z,97363.97
2023-03-19T11:59:36.619Z,97353.72
2023-03-19T12:02:09.314Z,97360.84
2023-03-19T12:04:41.856Z,97354.00
2023-03-19T12:07:08.567Z,97353.03
2023-03-19T12:09:46.188Z,97347.06
2023-03-19T12:12:42.259Z,97352.47
2023-03-19T12:15:11.823Z,97352.59
2023-03-19T12:17:45.739Z,97354.50
2023-03-19T12:20:20.559Z,97353.13
2023-03-19T12:22:59.406Z,97347.34
2023-03-19T12:25:34.543Z,97354.44
2023-03-19T12:28:20.120Z,97345.72
2023-03-19T12:30:58.148Z,97343.44
2023-03-19T12:33:34.618Z,97350.25
2023-03-19T12:36:03.109Z,97351.53
2023-03-19T12:38:32.774Z,97353.81
2023-03-19T12:41:05.156Z,97356.22
2023-03-19T12:43:37.128Z,97343.16
2023-03-19T12:46:33.100Z,97349.53
2023-03-19T12:49:18.296Z,97352.22
2023-03-19T12:51:49.438Z,97356.31
2023-03-19T12:54:15.869Z,97357.38
2023-03-19T12:56:48.397Z,97356.72
2023-03-19T12:59:33.274Z,97349.41
2023-03-19T13:02:03.740Z,97347.31
2023-03-19T13:04:33.438Z,97350.66
2023-03-19T13:07:07.592Z,97347.25
2023-03-19T13:09:52.982Z,97345.44
2023-03-19T13:12:19.468Z,97358.03
2023-03-19T13:14:59.880Z,97340.84
2023-03-19T13:17:49.373Z,97341.28
2023-03-19T13:20:15.853Z,97332.19
2023-03-19T13:22:45.188Z,97349.63
2023-03-19T13:25:15.462Z,97340.03
2023-03-19T13:27:42.477Z,97337.66
2023-03-19T13:30:12.137Z,97330.31
2023-03-19T13:32:39.127Z,97327.41
2023-03-19T13:35:13.545Z,97324.47
2023-03-19T13:37:43.572Z,97325.72
2023-03-19T13:40:30.374Z,97326.34
2023-03-19T13:42:57.624Z,97328.69
2023-03-19T13:45:27.653Z,97320.63
2023-03-19T13:47:58.379Z,97323.25
2023-03-19T13:50:29.260Z,97312.25
2023-03-19T13:53:20.216Z,97310.59
2023-03-19T13:55:49.972Z,97319.44
2023-03-19T13:58:39.718Z,97313.16
2023-03-19T14:01:07.051Z,97311.25
2023-03-19T14:03:35.170Z,97309.78
2023-03-19T14:06:03.818Z,97303.78
2023-03-19T14:08:42.833Z,97309.06
2023-03-19T14:11:10.136Z,97302.44
2023-03-19T14:13:40.038Z,97297.19
2023-03-19T14:16:26.904Z,97299.91
2023-03-19T14:18:57.629Z,97291.97
2023-03-19T14:21:47.288Z,97301.22
2023-03-19T14:24:55.350Z,97301.38
2023-03-19T14:27:22.695Z,97311.25
2023-03-19T14:29:49.647Z,97308.03
2023-03-19T14:32:20.543Z,97302.22
2023-03-19T14:34:48.946Z,97302.25
2023-03-19T14:37:19.373Z,97297.84
2023-03-19T14:39:49.201Z,97302.22
2023-03-19T14:42:21.188Z,97294.59
2023-03-19T14:44:56.822Z,97303.88
2023-03-19T14:47:29.022Z,97307.97
2023-03-19T14:50:06.599Z,97310.44
2023-03-19T14:52:36.591Z,97308.09
2023-03-19T14:55:09.625Z,97305.63
2023-03-19T14:57:36.149Z,97308.78
2023-03-19T15:00:06.587Z,97301.84
2023-03-19T15:02:35.161Z,97300.91
2023-03-19T15:05:04.720Z,97311.25
2023-03-19T15:07:38.319Z,97311.44
2023-03-19T15:10:06.844Z,97308.72
2023-03-19T15:12:34.291Z,97312.38
2023-03-19T15:15:19.494Z,97317.97
2023-03-19T15:17:54.403Z,97305.97
2023-03-19T15:20:24.399Z,97315.72
2023-03-19T15:22:55.427Z,97315.63
2023-03-19T15:25:22.600Z,97322.00
2023-03-19T15:28:04.634Z,97319.13
2023-03-19T15:30:32.608Z,97323.00
2023-03-19T15:33:12.024Z,97323.78
2023-03-19T15:35:41.499Z,97317.38
2023-03-19T15:38:09.191Z,97319.41
2023-03-19T15:40:36.910Z,97321.91
2023-03-19T15:43:03.761Z,97319.44
2023-03-19T15:45:33.658Z,97323.09
2023-03-19T15:48:03.025Z,97317.25
2023-03-19T15:50:33.268Z,97324.44
2023-03-19T15:53:11.776Z,97332.31
2023-03-19T15:55:38.587Z,97321.81
2023-03-19T15:58:07.200Z,97327.69
2023-03-19T16:00:37.799Z,97331.38
2023-03-19T16:03:06.787Z,97337.66
2023-03-19T16:05:33.578Z,97335.94
2023-03-19T16:08:02.036Z,97334.38
2023-03-19T16:10:28.451Z,97341.28
2023-03-19T16:12:55.489Z,97345.81
2023-03-19T16:15:30.013Z,97338.38
2023-03-19T16:18:08.797Z,97344.53
2023-03-19T16:20:41.052Z,97353.22
2023-03-19T16:23:14.211Z,97352.59
2023-03-19T16:25:43.990Z,97360.22
2023-03-19T16:28:16.825Z,97362.94
2023-03-19T16:30:47.482Z,97363.84
2023-03-19T16:33:14.850Z,97357.50
2023-03-19T16:35:41.645Z,97365.56
2023-03-19T16:38:11.122Z,97363.56
2023-03-19T16:40:37.642Z,97363.28
2023-03-19T16:43:08.396Z,97367.66
2023-03-19T16:45:35.521Z,97367.75
2023-03-19T16:48:05.158Z,97364.94
2023-03-19T16:50:39.005Z,97374.88
2023-03-19T16:53:21.488Z,97384.78
2023-03-19T16:55:48.434Z,97383.97
2023-03-19T16:58:19.114Z,97382.53
2023-03-19T17:00:46.192Z,97391.25
2023-03-19T17:03:16.925Z,97388.16
2023-03-19T17:05:44.623Z,97395.09
2023-03-19T17:08:11.681Z,97399.84
2023-03-19T17:10:39.987Z,97402.47
2023-03-19T17:13:06.628Z,97410.44
2023-03-19T17:15:41.781Z,97402.28
2023-03-19T17:18:19.047Z,97396.59
2023-03-19T17:20:52.170Z,97400.00
2023-03-19T17:23:19.108Z,97401.81
2023-03-19T17:25:45.767Z,97410.97
2023-03-19T17:28:12.204Z,97408.22
2023-03-19T17:30:39.180Z,97420.66
2023-03-19T17:33:05.813Z,97417.53
2023-03-19T17:35:41.035Z,97413.97
2023-03-19T17:38:09.396Z,97417.69
2023-03-19T17:40:37.503Z,97410.50
2023-03-19T17:43:05.607Z,97412.53
2023-03-19T17:45:32.088Z,97417.25
2023-03-19T17:47:58.881Z,97420.38
2023-03-19T17:50:26.574Z,97429.50
2023-03-19T17:52:53.180Z,97432.06
2023-03-19T17:55:27.140Z,97433.59
2023-03-19T17:57:54.004Z,97434.44
2023-03-19T18:00:21.616Z,97433.22
2023-03-19T18:02:49.655Z,97425.47
2023-03-19T18:05:17.760Z,97419.56
2023-03-19T18:07:45.504Z,97426.16
2023-03-19T18:10:18.963Z,97427.19
2023-03-19T18:12:45.732Z,97434.66
2023-03-19T18:15:12.988Z,97434.03
2023-03-19T18:17:41.612Z,97440.78
2023-03-19T18:20:12.498Z,97441.13
2023-03-19T18:22:38.930Z,97444.50
2023-03-19T18:25:05.586Z,97449.22
2023-03-19T18:27:32.036Z,97450.56
2023-03-19T18:29:58.494Z,97452.63
2023-03-19T18:32:27.862Z,97453.94
2023-03-19T18:34:54.404Z,97450.25
2023-03-19T18:37:21.008Z,97460.38
2023-03-19T18:39:47.620Z,97456.66
2023-03-19T18:42:14.556Z,97457.31
2023-03-19T18:44:41.339Z,97455.66
2023-03-19T18:47:15.546Z,97466.78
2023-03-19T18:49:42.828Z,97459.69
2023-03-19T18:52:14.022Z,97464.78
2023-03-19T18:54:40.756Z,97461.38
2023-03-19T18:57:10.924Z,97462.56
2023-03-19T18:59:37.389Z,97459.34
2023-03-19T19:02:21.843Z,97459.16
2023-03-19T19:04:48.526Z,97462.72
2023-03-19T19:07:16.448Z,97455.91
2023-03-19T19:09:42.939Z,97464.88
2023-03-19T19:12:13.490Z,97467.03
2023-03-19T19:14:40.209Z,97468.03
2023-03-19T19:17:06.969Z,97463.25
2023-03-19T19:19:33.440Z,97471.66
2023-03-19T19:22:00.114Z,97468.63
2023-03-19T19:24:26.695Z,97466.22
2023-03-19T19:26:53.748Z,97474.66
2023-03-19T19:29:24.489Z,97464.88
2023-03-19T19:31:51.400Z,97475.28
2023-03-19T19:34:17.903Z,97468.53
2023-03-19T19:36:44.397Z,97465.97
2023-03-19T19:39:11.034Z,97467.44
2023-03-19T19:41:37.741Z,97476.66
2023-03-19T19:44:04.542Z,97477.19
2023-03-19T19:46:31.883Z,97472.75
2023-03-19T19:48:59.921Z,97479.78
2023-03-19T19:51:27.597Z,97475.59
2023-03-19T19:53:54.360Z,97485.22
2023-03-19T19:56:22.365Z,97478.16
2023-03-19T19:58:51.134Z,97484.88
2023-03-19T20:01:19.035Z,97471.91
2023-03-19T20:03:46.591Z,97477.09
2023-03-19T20:06:13.482Z,97473.06
2023-03-19T20:08:40.256Z,97473.97
2023-03-19T20:11:14.219Z,97476.78
2023-03-19T20:13:41.304Z,97473.81
2023-03-19T20:16:09.716Z,97475.16
2023-03-19T20:18:37.241Z,97482.25
2023-03-19T20:21:04.250Z,97485.81
2023-03-19T20:23:31.339Z,97488.38
2023-03-19T20:25:58.276Z,97486.06
2023-03-19T20:28:27.175Z,97480.75
2023-03-19T20:30:54.150Z,97486.00
2023-03-19T20:33:21.576Z,97486.28
2023-03-19T20:35:48.381Z,97489.19
2023-03-19T20:38:14.875Z,97491.50
2023-03-19T20:40:46.505Z,97496.19
2023-03-19T20:43:22.253Z,97494.22
2023-03-19T20:45:48.769Z,97493.25
2023-03-19T20:48:16.600Z,97489.03
2023-03-19T20:50:44.155Z,97488.81
2023-03-19T20:53:10.744Z,97498.63
2023-03-19T20:55:38.467Z,97502.22
2023-03-19T20:58:24.065Z,97504.22
2023-03-19T21:00:50.940Z,97497.53
2023-03-19T21:03:19.065Z,97493.94
2023-03-19T21:05:46.200Z,97495.38
2023-03-19T21:08:17.340Z,97506.47
2023-03-19T21:10:44.368Z,97501.41
2023-03-19T21:13:15.549Z,97510.34
2023-03-19T21:15:42.978Z,97512.91
2023-03-19T21:18:10.038Z,97512.19
2023-03-19T21:20:40.871Z,97510.78
2023-03-19T21:23:10.568Z,97517.59
2023-03-19T21:25:37.230Z,97513.34
2023-03-19T21:28:05.910Z,97510.25
2023-03-19T21:30:40.862Z,97516.91
2023-03-19T21:33:13.988Z,97517.91
2023-03-19T21:35:40.642Z,97509.84
2023-03-19T21:38:07.166Z,97508.31
2023-03-19T21:40:33.727Z,97517.09
2023-03-19T21:43:01.498Z,97518.19
2023-03-19T21:45:32.751Z,97512.81
2023-03-19T21:48:20.189Z,97511.44
2023-03-19T21:50:47.468Z,97510.00
2023-03-19T21:53:13.906Z,97510.84
2023-03-19T21:55:40.546Z,97506.31
2023-03-19T21:58:10.430Z,97505.22
2023-03-19T22:00:36.900Z,97515.06
2023-03-19T22:03:03.509Z,97502.50
2023-03-19T22:05:30.495Z,97498.13
2023-03-19T22:07:57.278Z,97505.75
2023-03-19T22:10:26.953Z,97500.66
2023-03-19T22:12:53.516Z,97505.72
2023-03-19T22:15:26.610Z,97505.16
2023-03-19T22:17:53.432Z,97504.28
2023-03-19T22:20:21.428Z,97514.38
2023-03-19T22:22:48.282Z,97503.06
2023-03-19T22:25:15.956Z,97509.94
2023-03-19T22:27:43.340Z,97512.47
2023-03-19T22:30:21.817Z,97510.78
2023-03-19T22:32:48.688Z,97507.69
2023-03-19T22:35:16.020Z,97512.78
2023-03-19T22:37:42.710Z,97516.44
2023-03-19T22:40:10.926Z,97514.72
2023-03-19T22:42:38.340Z,97507.13
2023-03-19T22:45:05.333Z,97515.16
2023-03-19T22:47:34.316Z,97514.47
2023-03-19T22:50:00.790Z,97519.00
2023-03-19T22:52:29.057Z,97516.47
2023-03-19T22:54:55.495Z,97515.91
2023-03-19T22:57:21.952Z,97525.16
2023-03-19T22:59:48.554Z,97526.88
2023-03-19T23:02:15.029Z,97520.22
2023-03-19T23:04:41.763Z,97528.19
2023-03-19T23:07:12.691Z,97525.59
2023-03-19T23:09:39.270Z,97530.41
2023-03-19T23:12:07.323Z,97528.44
2023-03-19T23:14:33.930Z,97522.00
2023-03-19T23:17:03.112Z,97532.16
2023-03-19T23:19:31.231Z,97521.47
2023-03-19T23:21:58.872Z,97515.78
2023-03-19T23:24:25.628Z,97519.63
2023-03-19T23:26:53.945Z,97520.03
2023-03-19T23:29:29.416Z,97526.44
2023-03-19T23:31:58.538Z,97517.41
2023-03-19T23:34:25.954Z,97524.91
2023-03-19T23:36:53.407Z,97530.69
2023-03-19T23:39:21.001Z,97531.50
2023-03-19T23:41:48.528Z,97531.78
2023-03-19T23:44:16.718Z,97527.84
2023-03-19T23:46:44.255Z,97528.13
2023-03-19T23:49:16.003Z,97529.41
2023-03-19T23:51:42.530Z,97536.59
2023-03-19T23:54:18.371Z,97539.94
2023-03-19T23:56:44.804Z,97533.47
2023-03-19T23:59:11.829Z,97540.78
